Terminal Aerodrome Forecast
Issued by NWS

Home | Current Version | Previous Version | Text Only | Print | Product List | Glossary On
Versions: 1 2 3 4 5 6 7 8 9 10 11 12 13 14 15 16 17 18 19 20 21 22 23 24 25 26 27
000
FTAK31 PAFA 251132
TAFAQT
TAF
PAQT 251132Z 2512/2612 20004KT P6SM -SHSN OVC011
     FM251900 15005KT P6SM BKN025 OVC050
     FM260700 13007KT P6SM -SHSN OVC015=

USA.gov is the U.S. government's official web portal to all federal, state and local government web resources and services.